map of NAW home
NAW - Airport
Location
City:  Narathiwat, Narathiwat, Thailand
ICAO:VTSC
IATA:NAW

Details
Type:Airport (Aerodrome, Airfield)
Latitude:631'12"N (6.519922)
Longitude:10144'36"E (101.743400)
Datum:WGS 1984
Elevation:16 ft (5 m)
Variation:0.16W (WMM2015 magnetic declination)
0.01 annual change
Runways:1
Longest:6562 × 148 ft (2000 × 45 m), paved

Time
Time Zone:UTC+7
Local Time:

Weather
METAR:VTSC 210900Z 08007KT 040V120 9999 FEW022 29/23 Q1010 NOSIG
TAF:VTSC 210500Z 2106/2206 09008KT 9999 FEW020

Related Locations
Nearby:
Farthest:CHH: 12423 mi / 19993 km
Chachapoyas [Chachapoyas Airport], AMA, PE

Find:

   beyond  
but within

Other Information
Maps:
NOTAMs:
Links:
Sources:

  
  • flag of Thailand
  

Sectional Chart

Flight Planning
at skyvector.com

Satellite Image

Google Maps Satellite view

 

Copyright © 2004-2019 Karl L. Swartz. All rights reserved.
The Great Circle Mapper name and logo are trademarks of the Great Circle Mapper.
All other trademarks mentioned herein belong to their respective owners.
Please see credits for attibutions and further copyright information.

  Follow gcmap on Facebook Follow gcmap on Twitter Follow gcmap on Google+ GCmap on LinkedIn

hCard Microformat

Geo Microformat